Time;durP1;ratioP1;P1;durP2;ratioP2;P2;SDS_P1;SDS_P2;PMS_P1;PMS_P2;Temp;Humidity;BMP_temperature;BMP_pressure;BME280_temperature;BME280_humidity;BME280_pressure;Samples;Min_cycle;Max_cycle;Signal;HPM_P1;HPM_P2
2023/12/06 00:04:50;;;;;;;32.53;13.53;;;1.00;99.90;;;-1.04;100.00;99986.34;10441798;27;96614;-83
2023/12/06 00:09:54;;;;;;;38.70;15.03;;;1.00;99.90;;;-1.04;100.00;99981.13;10442348;27;96513;-83
2023/12/06 00:14:57;;;;;;;31.30;12.80;;;1.10;99.90;;;-1.08;100.00;99970.03;10430548;27;96548;-83
2023/12/06 00:20:01;;;;;;;25.90;11.13;;;1.10;99.90;;;-1.03;100.00;99975.78;10480620;27;96503;-83
2023/12/06 00:25:06;;;;;;;30.73;12.57;;;1.10;99.90;;;-1.03;100.00;99977.56;10473421;27;96376;-83
2023/12/06 00:30:10;;;;;;;31.23;11.43;;;1.10;99.90;;;-1.01;100.00;99979.16;10497664;27;96680;-84
2023/12/06 00:35:14;;;;;;;30.33;12.40;;;1.10;99.90;;;-0.98;100.00;99968.50;10453454;27;96620;-84
2023/12/06 00:40:17;;;;;;;31.07;11.90;;;1.10;99.90;;;-0.99;100.00;99971.22;10499740;27;96653;-83
2023/12/06 00:45:21;;;;;;;28.73;11.23;;;1.10;99.90;;;-1.00;100.00;99967.78;10444616;27;96575;-84
2023/12/06 00:50:24;;;;;;;36.67;12.13;;;1.10;99.90;;;-0.98;100.00;99978.94;10468229;27;96440;-83
2023/12/06 00:55:28;;;;;;;34.47;12.07;;;1.10;99.90;;;-0.99;100.00;99969.44;10431516;27;96453;-84
2023/12/06 01:00:31;;;;;;;28.07;10.83;;;1.20;99.90;;;-0.98;100.00;99965.06;10478603;27;96448;-84
2023/12/06 01:05:35;;;;;;;33.37;12.23;;;1.10;99.90;;;-0.98;100.00;99960.69;10455545;27;96537;-84
2023/12/06 01:10:42;;;;;;;30.73;11.57;;;1.10;99.90;;;-1.01;100.00;99957.47;10462518;27;96717;-84
2023/12/06 01:15:47;;;;;;;31.90;11.97;;;1.10;99.90;;;-1.02;100.00;99948.81;10466133;27;96528;-84
2023/12/06 01:20:50;;;;;;;34.67;13.67;;;1.10;99.90;;;-0.98;100.00;99957.25;10437183;27;96585;-84
2023/12/06 01:25:54;;;;;;;26.73;10.90;;;1.10;99.90;;;-0.98;100.00;99958.06;10475960;27;96484;-85
2023/12/06 01:30:57;;;;;;;26.37;11.33;;;1.10;99.90;;;-0.99;100.00;99951.19;10464345;27;96684;-85
2023/12/06 01:36:01;;;;;;;30.63;13.13;;;1.10;99.90;;;-0.97;100.00;99944.09;10415428;27;96564;-85
2023/12/06 01:41:05;;;;;;;42.10;13.60;;;1.10;99.90;;;-0.96;100.00;99937.97;10489659;27;96480;-86
2023/12/06 01:46:10;;;;;;;28.23;11.10;;;1.10;99.90;;;-0.99;100.00;99930.31;10457929;27;96703;-85
2023/12/06 01:51:17;;;;;;;32.57;12.30;;;1.20;99.90;;;-0.96;100.00;99922.31;10467921;27;96523;-86
2023/12/06 01:56:21;;;;;;;25.30;10.10;;;1.20;99.90;;;-0.99;100.00;99908.63;10505439;27;96847;-87
2023/12/06 02:01:25;;;;;;;33.00;12.97;;;1.20;99.90;;;-0.94;100.00;99917.81;10462959;27;98022;-86
2023/12/06 02:06:30;;;;;;;32.97;11.80;;;1.20;99.90;;;-0.92;100.00;99905.50;10464943;27;97254;-86
2023/12/06 02:11:34;;;;;;;33.87;11.90;;;1.20;99.90;;;-0.91;100.00;99901.13;10445307;27;96547;-88
2023/12/06 02:16:38;;;;;;;25.77;10.97;;;1.20;99.90;;;-0.91;100.00;99896.72;10464004;27;96689;-88
2023/12/06 02:21:42;;;;;;;23.37;9.67;;;1.20;99.90;;;-0.89;100.00;99896.66;10489432;27;97130;-88
2023/12/06 02:26:46;;;;;;;29.90;11.53;;;1.20;99.90;;;-0.88;100.00;99896.53;10461161;27;96522;-88
2023/12/06 02:31:52;;;;;;;27.47;11.00;;;1.30;99.90;;;-0.89;100.00;99881.84;10451301;27;96915;-89
2023/12/06 02:37:03;;;;;;;32.70;12.87;;;1.30;99.90;;;-0.87;100.00;99877.34;10448038;27;96564;-89
2023/12/06 02:42:06;;;;;;;28.23;9.47;;;1.30;99.90;;;-0.86;100.00;99878.19;10458343;27;96436;-90
2023/12/06 02:47:10;;;;;;;26.83;10.90;;;1.30;99.90;;;-0.84;100.00;99881.50;10456245;27;96789;-89
2023/12/06 02:52:16;;;;;;;25.03;9.73;;;1.30;99.90;;;-0.84;100.00;99877.16;10465254;27;96559;-88
2023/12/06 02:57:21;;;;;;;28.43;11.43;;;1.30;99.90;;;-0.87;100.00;99866.91;10437684;27;96771;-88
2023/12/06 03:02:25;;;;;;;29.43;10.93;;;1.30;99.90;;;-0.85;100.00;99870.22;10476712;27;96464;-87
2023/12/06 03:07:28;;;;;;;21.47;9.60;;;1.30;99.90;;;-0.83;100.00;99867.56;10454015;27;96540;-86
2023/12/06 03:12:31;;;;;;;22.53;9.23;;;1.30;99.90;;;-0.90;100.00;99854.09;10467114;27;96639;-86
2023/12/06 03:17:35;;;;;;;28.07;9.87;;;1.30;99.90;;;-0.80;100.00;99869.94;10475416;27;96921;-86
2023/12/06 03:22:41;;;;;;;23.57;9.77;;;1.30;99.90;;;-0.80;100.00;99867.31;10460065;27;96511;-86
2023/12/06 03:27:45;;;;;;;20.97;8.70;;;1.40;99.90;;;-0.77;100.00;99863.69;10449226;27;96671;-86
2023/12/06 03:32:51;;;;;;;22.30;9.40;;;1.40;99.90;;;-0.80;100.00;99854.28;10495401;27;96416;-86
2023/12/06 03:37:55;;;;;;;24.13;8.80;;;1.40;99.90;;;-0.79;100.00;99863.78;10458921;27;96549;-85
2023/12/06 03:42:58;;;;;;;21.17;8.50;;;1.40;99.90;;;-0.77;100.00;99864.53;10417430;27;96800;-85
2023/12/06 03:48:02;;;;;;;22.33;8.87;;;1.40;99.90;;;-0.78;100.00;99868.06;10476197;27;97883;-85
2023/12/06 03:53:06;;;;;;;29.33;10.73;;;1.40;99.90;;;-0.76;100.00;99863.56;10469061;27;96531;-85
2023/12/06 03:58:12;;;;;;;30.30;14.37;;;1.40;99.90;;;-0.76;100.00;99860.97;10476837;27;97165;-84
2023/12/06 04:03:16;;;;;;;28.53;10.53;;;1.40;99.90;;;-0.78;100.00;99856.78;10471540;27;96596;-85
2023/12/06 04:08:20;;;;;;;29.70;12.47;;;1.40;99.90;;;-0.78;100.00;99856.78;10444553;27;96493;-84
2023/12/06 04:13:23;;;;;;;33.30;12.60;;;1.40;99.90;;;-0.82;100.00;99859.59;10473699;27;96473;-85
2023/12/06 04:18:27;;;;;;;35.20;13.87;;;1.40;99.90;;;-0.79;100.00;99855.13;10488948;27;97824;-85
2023/12/06 04:23:30;;;;;;;26.30;9.77;;;1.40;99.90;;;-0.77;100.00;99858.47;10488943;27;96517;-84
2023/12/06 04:28:34;;;;;;;32.83;11.60;;;1.40;99.90;;;-0.77;100.00;99859.31;10427582;27;96489;-85
2023/12/06 04:33:37;;;;;;;21.80;10.70;;;1.40;99.90;;;-0.81;100.00;99850.84;10474543;27;96573;-85
2023/12/06 04:38:41;;;;;;;35.87;12.73;;;1.40;99.90;;;-0.87;100.00;99833.00;10480374;27;96556;-85
2023/12/06 04:43:46;;;;;;;40.57;14.87;;;1.30;99.90;;;-0.83;100.00;99841.47;10471958;27;96435;-86
2023/12/06 04:48:50;;;;;;;46.40;15.10;;;1.30;99.90;;;-0.83;100.00;99833.63;10455880;27;97035;-85
2023/12/06 04:53:54;;;;;;;29.27;12.23;;;1.30;99.90;;;-0.81;100.00;99840.41;10452160;27;96702;-86
2023/12/06 04:58:57;;;;;;;38.87;14.47;;;1.30;99.90;;;-0.79;100.00;99847.28;10460180;27;97013;-86
2023/12/06 05:04:01;;;;;;;37.77;14.43;;;1.40;99.90;;;-0.76;100.00;99849.69;10496845;27;96601;-85
2023/12/06 05:09:05;;;;;;;32.73;13.27;;;1.40;99.90;;;-0.79;100.00;99840.28;10453981;27;96597;-85
2023/12/06 05:14:08;;;;;;;36.13;14.27;;;1.40;99.90;;;-0.79;100.00;99842.91;10482414;27;96610;-85
2023/12/06 05:19:12;;;;;;;44.23;17.27;;;1.40;99.90;;;-0.73;100.00;99841.66;10456000;27;96689;-85
2023/12/06 05:24:17;;;;;;;39.10;16.67;;;1.40;99.90;;;-0.72;100.00;99843.31;10471537;27;97555;-85
2023/12/06 05:29:20;;;;;;;44.80;17.87;;;1.40;99.90;;;-0.73;100.00;99841.66;10460185;27;97037;-85
2023/12/06 05:34:24;;;;;;;39.50;16.03;;;1.40;99.90;;;-0.74;100.00;99830.38;10464508;27;96475;-85
2023/12/06 05:39:28;;;;;;;41.97;15.77;;;1.40;99.90;;;-0.73;100.00;99831.22;10473441;27;96937;-85
2023/12/06 05:44:31;;;;;;;25.47;11.63;;;1.40;99.90;;;-0.71;100.00;99832.78;10494006;27;96584;-85
2023/12/06 05:49:35;;;;;;;43.83;14.80;;;1.40;99.90;;;-0.76;100.00;99827.06;10462238;27;96631;-85
2023/12/06 05:54:39;;;;;;;41.97;15.40;;;1.40;99.90;;;-0.79;100.00;99815.97;10455788;27;96566;-85
2023/12/06 05:59:42;;;;;;;37.97;13.90;;;1.40;99.90;;;-0.76;100.00;99815.78;10456859;27;97938;-84
2023/12/06 06:04:46;;;;;;;35.53;11.80;;;1.30;99.90;;;-0.76;100.00;99824.44;10477269;27;96555;-85
2023/12/06 06:09:50;;;;;;;45.87;15.97;;;1.30;99.90;;;-0.76;100.00;99821.84;10477456;27;96661;-84
2023/12/06 06:15:02;;;;;;;;;;;1.40;99.90;;;-0.76;100.00;99818.41;10496588;27;96659;-85
2023/12/06 06:20:06;;;;;;;46.60;15.63;;;1.40;99.90;;;-0.78;100.00;99823.72;10456234;27;96566;-84
2023/12/06 06:25:10;;;;;;;39.13;14.33;;;1.30;99.90;;;-0.83;100.00;99826.63;10442042;27;96547;-84
2023/12/06 06:30:14;;;;;;;39.20;15.13;;;1.30;99.90;;;-0.79;100.00;99829.84;10466675;27;96500;-84
2023/12/06 06:35:17;;;;;;;36.27;14.60;;;1.30;99.90;;;-0.80;100.00;99841.25;10480413;27;96800;-84
2023/12/06 06:40:22;;;;;;;35.40;12.90;;;1.40;99.90;;;-0.79;100.00;99840.28;10481506;27;96527;-84
2023/12/06 06:45:26;;;;;;;32.40;14.57;;;1.40;99.90;;;-0.87;100.00;99824.34;10489391;27;96768;-84
2023/12/06 06:50:30;;;;;;;33.77;13.37;;;1.40;99.90;;;-0.75;100.00;99851.38;10481188;27;96623;-84
2023/12/06 06:55:33;;;;;;;32.60;13.20;;;1.40;99.90;;;-0.73;100.00;99852.09;10462565;27;96594;-84
2023/12/06 07:00:37;;;;;;;35.10;13.20;;;1.40;99.90;;;-0.71;100.00;99845.84;10471542;27;96928;-84
2023/12/06 07:05:41;;;;;;;35.57;14.37;;;1.40;99.90;;;-0.71;100.00;99850.22;10466490;27;96469;-83
2023/12/06 07:10:47;;;;;;;29.07;12.60;;;1.50;99.90;;;-0.66;100.00;99859.41;10479260;27;97906;-83
2023/12/06 07:15:50;;;;;;;37.60;15.93;;;1.50;99.90;;;-0.65;100.00;99855.03;10465077;27;96785;-83
2023/12/06 07:20:54;;;;;;;63.43;23.13;;;1.50;99.90;;;-0.66;100.00;99854.19;10443475;27;96639;-83
2023/12/06 07:25:58;;;;;;;43.47;15.17;;;1.50;99.90;;;-0.60;100.00;99861.59;10422523;27;97040;-83
2023/12/06 07:31:02;;;;;;;34.63;14.60;;;1.60;99.90;;;-0.59;100.00;99867.66;10474334;27;96561;-83
2023/12/06 07:36:07;;;;;;;69.07;27.80;;;1.60;99.90;;;-0.59;100.00;99865.03;10485525;27;96410;-83
2023/12/06 07:41:11;;;;;;;56.37;24.80;;;1.60;99.90;;;-0.54;100.00;99870.75;10473019;27;98393;-83
2023/12/06 07:46:14;;;;;;;53.10;20.60;;;1.60;99.90;;;-0.50;100.00;99879.22;10466904;27;96907;-82
2023/12/06 07:51:18;;;;;;;68.63;24.90;;;1.70;99.90;;;-0.51;100.00;99867.94;10446946;27;96994;-83
2023/12/06 07:56:22;;;;;;;63.97;26.57;;;1.70;99.90;;;-0.47;100.00;99871.19;10428731;27;98395;-83
2023/12/06 08:01:31;;;;;;;42.03;17.20;;;1.80;99.90;;;-0.43;100.00;99870.84;10421207;27;96600;-82
2023/12/06 08:06:35;;;;;;;54.97;22.37;;;1.80;99.90;;;-0.34;100.00;99867.63;10467558;27;96654;-83
2023/12/06 08:11:39;;;;;;;71.93;26.23;;;1.90;99.90;;;-0.29;100.00;99864.69;10449426;27;96532;-82
2023/12/06 08:16:43;;;;;;;76.57;31.37;;;1.90;99.90;;;-0.25;100.00;99847.03;10488475;27;96872;-82
2023/12/06 08:21:47;;;;;;;68.90;25.77;;;2.00;99.90;;;-0.22;100.00;99844.22;10465518;27;96507;-82
2023/12/06 08:26:50;;;;;;;46.60;19.20;;;1.90;99.90;;;-0.17;100.00;99842.13;10455764;27;96773;-83
2023/12/06 08:31:57;;;;;;;45.57;19.07;;;2.10;99.90;;;-0.07;100.00;99851.78;10460112;27;96452;-83
2023/12/06 08:37:02;;;;;;;54.03;22.47;;;2.20;99.90;;;0.04;100.00;99853.63;10454403;27;97870;-83
2023/12/06 08:42:06;;;;;;;56.57;24.63;;;2.30;99.90;;;0.03;100.00;99854.59;10459363;27;96967;-83
2023/12/06 08:47:12;;;;;;;50.87;21.80;;;2.40;99.90;;;0.02;100.00;99871.22;10462548;27;96517;-84
2023/12/06 08:52:15;;;;;;;42.77;19.07;;;2.40;99.90;;;-0.01;100.00;99879.25;10461482;27;96688;-84
2023/12/06 08:57:19;;;;;;;47.87;20.43;;;2.30;99.90;;;0.04;100.00;99885.00;10462597;27;96765;-84
2023/12/06 09:02:23;;;;;;;44.60;18.17;;;2.40;99.90;;;0.08;100.00;99881.22;10490045;27;96507;-84
2023/12/06 09:07:27;;;;;;;40.90;18.53;;;2.40;99.90;;;0.11;100.00;99870.53;10426794;27;97621;-84
2023/12/06 09:12:32;;;;;;;37.13;16.00;;;2.50;99.90;;;0.21;100.00;99868.13;10454445;27;96872;-84
2023/12/06 09:17:38;;;;;;;36.27;15.80;;;2.60;99.90;;;0.21;100.00;99847.22;10457175;27;96605;-84
2023/12/06 09:22:42;;;;;;;42.87;18.77;;;2.60;99.90;;;0.30;100.00;99848.31;10458078;27;96561;-84
2023/12/06 09:27:45;;;;;;;43.43;20.57;;;2.70;99.90;;;0.37;100.00;99847.78;10433772;27;98031;-84
2023/12/06 09:32:52;;;;;;;56.83;22.50;;;2.80;99.90;;;0.41;100.00;99846.59;10461685;27;96657;-84
2023/12/06 09:37:55;;;;;;;63.37;24.17;;;2.80;99.90;;;0.47;100.00;99840.09;10461174;27;96715;-84
2023/12/06 09:43:02;;;;;;;66.00;28.33;;;2.80;99.90;;;0.48;100.00;99824.31;10496855;27;96631;-83
2023/12/06 09:48:06;;;;;;;54.93;23.20;;;2.90;99.90;;;0.53;100.00;99829.19;10456728;27;96552;-83
2023/12/06 09:53:11;;;;;;;41.87;16.87;;;2.90;99.90;;;0.54;100.00;99830.88;10435569;27;96550;-83
2023/12/06 09:58:16;;;;;;;41.30;16.23;;;2.90;99.90;;;0.51;100.00;99820.63;10413569;28;96419;-83
2023/12/06 10:03:22;;;;;;;45.33;20.37;;;2.90;99.90;;;0.59;100.00;99833.94;10428257;27;97795;-84
2023/12/06 10:08:25;;;;;;;35.80;17.50;;;3.00;99.90;;;0.63;100.00;99835.41;10414154;27;96774;-83
2023/12/06 10:13:38;;;;;;;55.63;25.00;;;3.00;99.90;;;0.65;100.00;99822.22;10443599;27;96534;-83
2023/12/06 10:18:44;;;;;;;46.00;20.03;;;3.10;99.90;;;0.71;100.00;99832.22;10474329;27;96706;-83
2023/12/06 10:23:57;;;;;;;53.30;20.73;;;3.10;99.90;;;0.74;100.00;99826.78;10473492;27;96415;-83
2023/12/06 10:29:01;;;;;;;49.90;19.70;;;3.20;99.90;;;0.73;100.00;99818.09;10476082;27;96493;-84
2023/12/06 10:34:06;;;;;;;38.13;17.27;;;3.20;99.90;;;0.72;100.00;99819.03;10459686;27;96536;-83
2023/12/06 10:39:11;;;;;;;36.97;17.73;;;3.20;99.90;;;0.66;100.00;99831.72;10454130;27;96543;-83
2023/12/06 10:44:15;;;;;;;44.97;19.50;;;3.10;99.90;;;0.61;100.00;99826.84;10469669;27;96687;-83
2023/12/06 10:49:20;;;;;;;33.23;15.43;;;3.10;99.90;;;0.64;100.00;99837.06;10433283;27;96756;-84
2023/12/06 10:54:25;;;;;;;39.80;18.17;;;3.10;99.90;;;0.60;100.00;99833.03;10449515;27;96698;-84
2023/12/06 10:59:33;;;;;;;36.80;16.17;;;3.00;99.90;;;0.72;100.00;99833.88;10465669;27;96553;-84
2023/12/06 11:04:46;;;;;;;33.53;15.47;;;3.10;99.90;;;0.75;100.00;99829.25;10476672;27;96425;-84
2023/12/06 11:10:11;;;;;;;38.33;16.23;;;3.20;99.90;;;0.79;100.00;99825.47;10459071;27;96566;-84
2023/12/06 11:15:30;;;;;;;35.23;15.80;;;3.20;99.90;;;0.79;100.00;99820.25;10443819;27;96866;-84
2023/12/06 11:20:34;;;;;;;36.07;14.97;;;3.30;99.90;;;0.83;100.00;99825.22;10445620;27;96794;-84
2023/12/06 11:25:45;;;;;;;36.80;15.90;;;3.30;99.90;;;0.87;100.00;99816.22;10429392;27;96696;-84
2023/12/06 11:30:55;;;;;;;45.00;19.08;;;3.30;99.90;;;0.91;100.00;99828.13;10458846;27;96564;-85
2023/12/06 11:36:00;;;;;;;33.50;16.67;;;3.40;99.90;;;0.89;100.00;99822.16;10446349;27;96536;-85
2023/12/06 11:41:04;;;;;;;36.23;14.93;;;3.30;99.90;;;0.88;100.00;99820.50;10434642;27;96755;-85
2023/12/06 11:46:09;;;;;;;26.60;12.50;;;3.30;99.90;;;0.87;100.00;99811.81;10456350;27;96607;-84
2023/12/06 11:51:22;;;;;;;35.43;13.27;;;3.30;99.90;;;0.88;100.00;99817.88;10459569;27;96530;-85
2023/12/06 11:56:26;;;;;;;33.87;14.33;;;3.30;99.90;;;0.90;100.00;99805.50;10458986;27;96471;-85
2023/12/06 12:01:31;;;;;;;33.30;15.13;;;3.40;99.90;;;0.94;100.00;99813.00;10463196;27;96648;-85
2023/12/06 12:06:35;;;;;;;33.13;14.47;;;3.40;99.90;;;0.98;100.00;99809.22;10435739;27;96850;-85
2023/12/06 12:11:44;;;;;;;35.20;16.63;;;3.50;99.90;;;0.96;100.00;99808.53;10465171;27;96430;-85
2023/12/06 12:16:48;;;;;;;36.77;14.93;;;3.40;99.90;;;0.96;100.00;99805.03;10453122;27;96884;-85
2023/12/06 12:22:04;;;;;;;41.73;17.67;;;3.40;99.90;;;0.96;100.00;99802.44;10473000;27;96550;-85
2023/12/06 12:27:08;;;;;;;44.50;19.93;;;3.40;99.90;;;0.95;100.00;99801.59;10474210;27;96435;-85
2023/12/06 12:32:12;;;;;;;41.80;16.73;;;3.40;99.90;;;0.91;100.00;99788.88;10459102;27;96746;-85
2023/12/06 12:37:15;;;;;;;39.93;19.70;;;3.40;99.90;;;0.88;100.00;99789.94;10461915;27;96498;-85
2023/12/06 12:42:19;;;;;;;50.60;22.47;;;3.30;99.90;;;0.85;100.00;99791.97;10471138;27;96664;-85
2023/12/06 12:47:23;;;;;;;52.57;23.30;;;3.30;99.90;;;0.84;100.00;99796.38;10444338;27;97020;-85
2023/12/06 12:52:35;;;;;;;51.00;23.17;;;3.20;99.90;;;0.86;100.00;99788.41;10457694;27;96554;-86
2023/12/06 12:57:44;;;;;;;49.70;20.37;;;3.30;99.90;;;0.92;100.00;99790.53;10472123;27;96705;-85
2023/12/06 13:02:48;;;;;;;55.83;22.37;;;3.30;99.90;;;0.91;100.00;99779.25;10463036;27;97702;-85
2023/12/06 13:07:59;;;;;;;41.40;19.17;;;3.30;99.90;;;0.86;100.00;99772.69;10486788;27;97725;-85
2023/12/06 13:13:03;;;;;;;40.87;19.63;;;3.30;99.90;;;0.86;100.00;99772.69;10482490;27;96625;-85
2023/12/06 13:18:07;;;;;;;35.23;15.97;;;3.30;99.90;;;0.82;100.00;99766.03;10458953;27;96629;-84
2023/12/06 13:23:11;;;;;;;34.57;16.00;;;3.20;99.90;;;0.74;100.00;99756.97;10453784;27;96725;-85
2023/12/06 13:28:14;;;;;;;36.27;16.67;;;3.20;99.90;;;0.63;100.00;99751.72;10449786;27;96874;-85
2023/12/06 13:33:18;;;;;;;30.60;14.50;;;3.20;99.90;;;0.72;100.00;99766.75;10434804;27;96537;-85
2023/12/06 13:38:22;;;;;;;35.27;15.80;;;3.10;99.90;;;0.69;100.00;99760.88;10421233;27;96524;-85
2023/12/06 13:43:26;;;;;;;35.33;16.93;;;3.10;99.90;;;0.66;100.00;99761.97;10459554;27;96574;-85
2023/12/06 13:48:30;;;;;;;34.67;15.97;;;3.10;99.90;;;0.64;100.00;99765.63;10465448;27;96561;-85
2023/12/06 13:53:33;;;;;;;38.97;16.93;;;3.00;99.90;;;0.58;100.00;99753.84;10471345;27;96783;-86
2023/12/06 13:58:37;;;;;;;39.30;18.40;;;3.00;99.90;;;0.53;100.00;99751.56;10456282;27;98446;-85
2023/12/06 14:03:42;;;;;;;44.47;19.07;;;3.00;99.90;;;0.58;100.00;99763.47;10469949;27;96456;-85
2023/12/06 14:08:46;;;;;;;43.37;20.10;;;2.90;99.90;;;0.53;100.00;99759.41;10462850;27;96528;-85
2023/12/06 14:13:51;;;;;;;49.37;20.13;;;2.90;99.90;;;0.55;100.00;99774.19;10453842;27;96782;-86
2023/12/06 14:18:54;;;;;;;50.40;20.93;;;2.80;99.90;;;0.49;100.00;99765.00;10456814;27;96563;-86
2023/12/06 14:23:58;;;;;;;102.93;39.77;;;2.80;99.90;;;0.53;100.00;99775.09;10454841;27;96575;-86
2023/12/06 14:29:03;;;;;;;74.97;29.47;;;2.80;99.90;;;0.53;100.00;99772.50;10467887;27;96605;-86
2023/12/06 14:34:09;;;;;;;55.00;23.93;;;2.80;99.90;;;0.52;100.00;99778.66;10455680;27;96463;-86
2023/12/06 14:39:12;;;;;;;56.93;25.83;;;2.80;99.90;;;0.49;100.00;99783.31;10465558;27;97254;-86
2023/12/06 14:44:17;;;;;;;58.40;25.57;;;2.80;99.90;;;0.41;100.00;99777.78;10447274;27;96718;-86
2023/12/06 14:49:21;;;;;;;67.37;31.87;;;2.70;99.90;;;0.40;100.00;99787.41;10443841;27;96512;-86
2023/12/06 14:54:24;;;;;;;60.30;25.43;;;2.70;99.90;;;0.41;100.00;99783.03;10461102;27;96626;-85
2023/12/06 14:59:28;;;;;;;83.47;33.50;;;2.70;99.90;;;0.41;100.00;99789.09;10428585;27;96489;-86
2023/12/06 15:04:32;;;;;;;50.60;21.33;;;2.70;99.90;;;0.41;100.00;99785.63;10420165;27;96391;-86
2023/12/06 15:09:35;;;;;;;46.63;20.27;;;2.70;99.90;;;0.38;100.00;99789.31;10404898;27;97838;-86
2023/12/06 15:14:39;;;;;;;72.77;32.27;;;2.70;99.90;;;0.35;100.00;99783.47;10424258;27;96652;-86
2023/12/06 15:19:46;;;;;;;58.80;27.10;;;2.70;99.90;;;0.34;100.00;99781.81;10460361;27;97863;-86
2023/12/06 15:24:50;;;;;;;71.43;30.47;;;2.70;99.90;;;0.35;100.00;99794.75;10453085;27;96436;-86
2023/12/06 15:29:54;;;;;;;71.73;25.77;;;2.70;99.90;;;0.31;100.00;99785.50;10444501;27;96572;-86
2023/12/06 15:34:57;;;;;;;70.77;30.97;;;2.60;99.90;;;0.32;100.00;99789.78;10459768;27;96573;-86
2023/12/06 15:40:01;;;;;;;84.00;31.03;;;2.60;99.90;;;0.34;100.00;99797.50;10465738;27;96732;-86
2023/12/06 15:45:06;;;;;;;74.83;29.30;;;2.60;99.90;;;0.32;100.00;99799.41;10443196;27;96705;-86
2023/12/06 15:50:10;;;;;;;65.03;23.07;;;2.60;99.90;;;0.32;100.00;99795.00;10442744;27;96562;-86
2023/12/06 15:55:14;;;;;;;55.37;21.27;;;2.60;99.90;;;0.31;100.00;99797.75;10454751;27;96969;-85
2023/12/06 16:00:18;;;;;;;44.37;19.07;;;2.60;99.90;;;0.30;100.00;99796.91;10399842;28;97978;-86
2023/12/06 16:05:21;;;;;;;53.57;22.80;;;2.60;99.90;;;0.32;100.00;99799.41;10406354;27;96527;-85
2023/12/06 16:10:25;;;;;;;52.07;21.00;;;2.60;99.90;;;0.30;100.00;99798.66;10446356;27;96758;-85
2023/12/06 16:15:45;;;;;;;60.37;24.40;;;2.60;99.90;;;0.33;100.00;99814.13;10440788;27;96435;-86
2023/12/06 16:21:03;;;;;;;59.03;26.43;;;2.60;99.90;;;0.31;100.00;99809.03;10402687;27;96873;-85
2023/12/06 16:26:06;;;;;;;55.43;22.70;;;2.50;99.90;;;0.29;100.00;99808.28;10453723;27;97123;-86
2023/12/06 16:31:11;;;;;;;46.97;21.90;;;2.50;99.90;;;0.24;100.00;99806.03;10399972;27;96657;-85
2023/12/06 16:36:18;;;;;;;45.80;21.23;;;2.50;99.90;;;0.25;100.00;99822.53;10450525;27;96487;-86
2023/12/06 16:41:22;;;;;;;67.47;27.30;;;2.50;99.90;;;0.23;100.00;99814.78;10454955;27;96581;-86
2023/12/06 16:46:25;;;;;;;54.37;20.63;;;2.50;99.90;;;0.24;100.00;99820.84;10457627;27;96601;-86
2023/12/06 16:51:30;;;;;;;52.03;19.43;;;2.50;99.90;;;0.18;100.00;99813.44;10457369;27;96447;-86
2023/12/06 16:56:34;;;;;;;43.53;19.47;;;2.50;99.90;;;0.23;100.00;99825.25;10425624;27;97902;-86
2023/12/06 17:01:38;;;;;;;42.37;15.73;;;2.50;99.90;;;0.24;100.00;99829.53;10440099;27;96690;-86
2023/12/06 17:06:41;;;;;;;43.47;17.93;;;2.50;99.90;;;0.25;100.00;99831.22;10457207;27;96651;-86
2023/12/06 17:11:45;;;;;;;44.27;20.40;;;2.50;99.90;;;0.30;100.00;99843.09;10464245;27;96539;-85
2023/12/06 17:16:49;;;;;;;45.03;17.93;;;2.50;99.90;;;0.24;100.00;99836.53;10482402;27;96488;-86
2023/12/06 17:21:52;;;;;;;31.40;14.63;;;2.50;99.90;;;0.23;100.00;99843.53;10481529;27;97755;-86
2023/12/06 17:26:56;;;;;;;23.63;10.97;;;2.50;99.90;;;0.19;100.00;99841.28;10479774;27;96499;-86
2023/12/06 17:32:00;;;;;;;52.10;18.07;;;2.40;99.90;;;0.22;100.00;99857.53;10498533;27;96500;-86
2023/12/06 17:37:04;;;;;;;35.17;14.53;;;2.40;99.90;;;0.18;100.00;99860.47;10485956;27;96736;-86
2023/12/06 17:42:08;;;;;;;36.67;16.13;;;2.30;99.90;;;0.06;100.00;99858.75;10479392;27;96499;-86
2023/12/06 17:47:12;;;;;;;29.70;13.03;;;2.30;99.90;;;0.07;100.00;99874.34;10498071;27;96579;-86
2023/12/06 17:52:15;;;;;;;25.00;11.40;;;2.20;99.90;;;-0.03;100.00;99876.75;10481452;27;96492;-86
2023/12/06 17:57:19;;;;;;;18.07;9.03;;;2.10;99.90;;;-0.14;100.00;99886.28;10456683;27;96436;-86
2023/12/06 18:02:24;;;;;;;14.67;7.77;;;2.00;99.90;;;-0.28;100.00;99885.47;10397799;28;96569;-86
2023/12/06 18:07:38;;;;;;;13.50;7.47;;;1.90;99.90;;;-0.38;100.00;99888.81;10417479;27;96555;-86
2023/12/06 18:12:42;;;;;;;16.47;8.43;;;1.80;99.90;;;-0.44;100.00;99899.69;10440476;27;96687;-86
2023/12/06 18:17:45;;;;;;;18.97;8.80;;;1.70;99.90;;;-0.53;100.00;99895.94;10407611;27;96702;-86
2023/12/06 18:22:49;;;;;;;27.27;9.73;;;1.60;99.90;;;-0.55;100.00;99910.84;10403257;27;96602;-86
2023/12/06 18:27:53;;;;;;;16.63;7.60;;;1.50;99.90;;;-0.61;100.00;99893.84;10455337;27;97555;-86
2023/12/06 18:32:56;;;;;;;20.07;6.90;;;1.50;99.90;;;-0.62;100.00;99907.81;10475956;27;96559;-85
2023/12/06 18:38:00;;;;;;;13.50;5.37;;;1.50;99.90;;;-0.68;100.00;99894.38;10461552;27;96857;-85
2023/12/06 18:43:04;;;;;;;12.97;5.63;;;1.50;99.90;;;-0.67;100.00;99902.09;10444268;27;96626;-85
2023/12/06 18:48:08;;;;;;;15.40;7.37;;;1.50;99.90;;;-0.66;100.00;99910.75;10427555;27;96875;-85
2023/12/06 18:53:11;;;;;;;9.73;5.20;;;1.40;99.90;;;-0.70;100.00;99915.34;10461189;27;96570;-85
2023/12/06 18:58:16;;;;;;;18.07;6.80;;;1.40;99.90;;;-0.77;100.00;99906.28;10461088;27;96535;-85
2023/12/06 19:03:20;;;;;;;12.03;6.10;;;1.30;99.90;;;-0.76;100.00;99917.53;10443635;27;96482;-84
2023/12/06 19:08:24;;;;;;;10.00;4.67;;;1.30;99.90;;;-0.79;100.00;99907.28;10460388;27;96527;-85
2023/12/06 19:13:27;;;;;;;20.63;9.17;;;1.30;99.90;;;-0.79;100.00;99920.34;10459416;27;96494;-85
2023/12/06 19:18:31;;;;;;;16.23;8.03;;;1.30;99.90;;;-0.78;100.00;99922.00;10444109;27;96413;-85
2023/12/06 19:23:35;;;;;;;11.67;6.10;;;1.30;99.90;;;-0.78;100.00;99930.69;10452273;27;96532;-85
2023/12/06 19:28:39;;;;;;;8.07;4.57;;;1.30;99.90;;;-0.75;100.00;99934.88;10469018;27;96526;-85
2023/12/06 19:33:43;;;;;;;10.20;5.40;;;1.40;99.90;;;-0.72;100.00;99938.13;10468978;27;96527;-85
2023/12/06 19:38:47;;;;;;;12.07;5.40;;;1.40;99.90;;;-0.75;100.00;99938.31;10494900;27;96475;-85
2023/12/06 19:43:50;;;;;;;20.87;10.33;;;1.40;99.90;;;-0.73;100.00;99946.84;10438808;27;96479;-84
2023/12/06 19:48:54;;;;;;;23.53;8.90;;;1.40;99.90;;;-0.77;100.00;99942.81;10477428;27;96627;-84
2023/12/06 19:53:59;;;;;;;34.93;12.30;;;1.40;99.90;;;-0.74;100.00;99950.41;10450057;27;96907;-84
2023/12/06 19:59:03;;;;;;;29.87;12.17;;;1.40;99.90;;;-0.76;100.00;99941.84;10477277;27;96453;-84
2023/12/06 20:04:07;;;;;;;32.10;13.43;;;1.30;99.90;;;-0.72;100.00;99947.69;10483997;27;96571;-84
2023/12/06 20:09:10;;;;;;;23.20;9.83;;;1.40;99.90;;;-0.75;100.00;99950.50;10478122;27;96618;-85
2023/12/06 20:14:14;;;;;;;13.93;6.63;;;1.40;99.90;;;-0.81;100.00;99939.53;10441500;27;96683;-84
2023/12/06 20:19:18;;;;;;;17.63;7.30;;;1.40;99.90;;;-0.74;100.00;99950.41;10451614;27;96794;-84
2023/12/06 20:24:21;;;;;;;16.17;7.03;;;1.40;99.90;;;-0.74;100.00;99944.34;10460790;27;96451;-84
2023/12/06 20:29:25;;;;;;;11.80;5.97;;;1.40;99.90;;;-0.76;100.00;99946.25;10471775;27;96553;-84
2023/12/06 20:34:29;;;;;;;15.17;6.63;;;1.40;99.90;;;-0.77;100.00;99945.41;10486512;27;96485;-84
2023/12/06 20:39:34;;;;;;;14.07;5.93;;;1.30;99.90;;;-0.79;100.00;99936.81;10483991;27;96576;-84
2023/12/06 20:44:38;;;;;;;8.03;3.73;;;1.30;99.90;;;-0.78;100.00;99924.63;10456269;27;97591;-84
2023/12/06 20:49:43;;;;;;;7.50;3.60;;;1.30;99.90;;;-0.82;100.00;99918.78;10446061;27;96632;-84